METAR AND TAF INFORMATION
METAR FOR LIRA
ADDS - METARS form results

(0046 UTC 24 January 2019)
Data provider http://aviationweather.gov/metar/data/
 
METAR text: LIRA 240020Z 13009KT 9999 FEW050 07/02 Q0990
Conditions at: LIRA (CIAMPINO(IT-AFB/, IT) observed 0020 UTC 24 January 2019
Temperature: 7.0°C (45°F)
Dewpoint: 2.0°C (36°F) [RH = 70%]
Pressure (altimeter): 29.23 inches Hg (990.0 mb)
Winds: from the SE (130 degrees) at 10 MPH (9 knots; 4.6 m/s)
Visibility: 6 or more miles (10+ km)
Ceiling: at least 12,000 feet AGL
Clouds: few clouds at 5000 feet AGL
Weather: no significant weather observed at this time

METAR text: LIRA 232350Z 13008KT 9999 FEW050 07/02 Q0990
Conditions at: LIRA (CIAMPINO(IT-AFB/, IT) observed 2350 UTC 23 January 2019
Temperature: 7.0°C (45°F)
Dewpoint: 2.0°C (36°F) [RH = 70%]
Pressure (altimeter): 29.23 inches Hg (990.0 mb)
Winds: from the SE (130 degrees) at 9 MPH (8 knots; 4.1 m/s)
Visibility: 6 or more miles (10+ km)
Ceiling: at least 12,000 feet AGL
Clouds: few clouds at 5000 feet AGL
Weather: no significant weather observed at this time

Forecast for: LIRA (CIAMPINO(IT-AFB/, IT)
Text: TAF LIRA 232300Z 2400/2424 13010KT 9999 SCT030
Forecast period: 0000 to 0600 UTC 24 January 2019
Forecast type: FROM: standard forecast or significant change
Winds: from the SE (130 degrees) at 12 MPH (10 knots; 5.1 m/s)
Visibility: 6 or more miles 10+ km)
Ceiling: at least 12,000 feet AGL
Clouds: scattered clouds at 3000 feet AGL
Weather: no significant weather forecast for this period
Text: BECMG 2406/2409 02008KT
Forecast period: 0600 UTC 24 January 2019 to 0000 UTC 25 January 2019
Forecast type: BECOMING: Conditions expected to become as follows by 0900 UTC 24 January 2019
Winds: from the NNE (20 degrees) at 9 MPH (8 knots; 4.1 m/s)
Visibility: 6 or more miles 10+ km)
Ceiling: at least 12,000 feet AGL
Clouds: scattered clouds at 3000 feet AGL
Weather: no significant weather forecast for this period

AIRPORT MAP

RUNWAY INFORMATION
Runway 15 Runway length 7242 ft Runway width 154 ft
Runway elevation 341 ft Runway displaced threshold 0 ft Runway heading 153
Runway 33 Runway length 7242 ft Runway width 154 ft
Runway elevation 427 ft Runway displaced threshold 0 ft Runway heading 333

AIRPORT FREQUENCIES
Type ARR Name ROMA ARR Frequency 119.2 MHZ
Type CLD Name CLNC DEL Frequency 119.4 MHZ
Type DIR Name ROMA DIREC Frequency 119.2 MHZ
Type GND Name GND Frequency 121.75 MHZ
Type TWR Name TWR Frequency 120.5 MHZ

AIRPORT NEAR NAVIGATION AIDS
Type NDB Name Ciampino Frequency 412 KHZ
Type VOR-DME Name Roma Frequency 110800 KHZ